sensor_id;sensor_type;location;lat;lon;timestamp;P1;durP1;ratioP1;P2;durP2;ratioP2
173;SDS011;75;48.784;9.364;2023-03-02T00:00:31;68.00;;;35.10;;
173;SDS011;75;48.784;9.364;2023-03-02T00:03:16;69.20;;;37.57;;
173;SDS011;75;48.784;9.364;2023-03-02T00:06:01;66.50;;;35.10;;
173;SDS011;75;48.784;9.364;2023-03-02T00:08:46;67.03;;;35.00;;
173;SDS011;75;48.784;9.364;2023-03-02T00:11:31;61.47;;;32.80;;
173;SDS011;75;48.784;9.364;2023-03-02T00:14:17;70.10;;;31.73;;
173;SDS011;75;48.784;9.364;2023-03-02T00:17:02;69.07;;;34.47;;
173;SDS011;75;48.784;9.364;2023-03-02T00:19:47;73.90;;;37.93;;
173;SDS011;75;48.784;9.364;2023-03-02T00:22:32;67.17;;;35.40;;
173;SDS011;75;48.784;9.364;2023-03-02T00:25:17;75.87;;;37.97;;
173;SDS011;75;48.784;9.364;2023-03-02T00:28:02;70.50;;;38.13;;
173;SDS011;75;48.784;9.364;2023-03-02T00:30:47;72.60;;;37.20;;
173;SDS011;75;48.784;9.364;2023-03-02T00:33:31;71.67;;;35.67;;
173;SDS011;75;48.784;9.364;2023-03-02T00:36:17;71.27;;;36.10;;
173;SDS011;75;48.784;9.364;2023-03-02T00:39:03;65.77;;;35.73;;
173;SDS011;75;48.784;9.364;2023-03-02T00:41:48;71.50;;;36.63;;
173;SDS011;75;48.784;9.364;2023-03-02T00:44:33;69.73;;;36.20;;
173;SDS011;75;48.784;9.364;2023-03-02T00:47:18;71.23;;;36.50;;
173;SDS011;75;48.784;9.364;2023-03-02T00:50:03;75.40;;;35.60;;
173;SDS011;75;48.784;9.364;2023-03-02T00:52:48;72.50;;;35.87;;
173;SDS011;75;48.784;9.364;2023-03-02T00:55:33;73.30;;;35.60;;
173;SDS011;75;48.784;9.364;2023-03-02T00:58:17;69.97;;;35.70;;
173;SDS011;75;48.784;9.364;2023-03-02T01:01:05;71.20;;;36.77;;
173;SDS011;75;48.784;9.364;2023-03-02T01:03:50;70.80;;;36.43;;
173;SDS011;75;48.784;9.364;2023-03-02T01:06:34;84.50;;;37.10;;
173;SDS011;75;48.784;9.364;2023-03-02T01:09:30;72.83;;;37.23;;
173;SDS011;75;48.784;9.364;2023-03-02T01:12:15;70.60;;;36.07;;
173;SDS011;75;48.784;9.364;2023-03-02T01:14:59;72.50;;;37.07;;
173;SDS011;75;48.784;9.364;2023-03-02T01:17:44;66.73;;;35.50;;
173;SDS011;75;48.784;9.364;2023-03-02T01:20:29;72.60;;;37.53;;
173;SDS011;75;48.784;9.364;2023-03-02T01:23:14;81.43;;;36.20;;
173;SDS011;75;48.784;9.364;2023-03-02T01:25:58;76.53;;;33.97;;
173;SDS011;75;48.784;9.364;2023-03-02T01:28:43;73.03;;;36.80;;
173;SDS011;75;48.784;9.364;2023-03-02T01:31:28;75.87;;;35.33;;
173;SDS011;75;48.784;9.364;2023-03-02T01:34:12;78.43;;;37.70;;
173;SDS011;75;48.784;9.364;2023-03-02T01:36:57;74.20;;;36.00;;
173;SDS011;75;48.784;9.364;2023-03-02T01:39:42;74.50;;;36.50;;
173;SDS011;75;48.784;9.364;2023-03-02T01:42:26;77.47;;;38.17;;
173;SDS011;75;48.784;9.364;2023-03-02T01:48:22;76.00;;;36.87;;
173;SDS011;75;48.784;9.364;2023-03-02T01:51:09;72.00;;;35.37;;
173;SDS011;75;48.784;9.364;2023-03-02T01:54:05;72.40;;;37.23;;
173;SDS011;75;48.784;9.364;2023-03-02T01:56:51;77.20;;;37.50;;
173;SDS011;75;48.784;9.364;2023-03-02T01:59:38;72.03;;;36.70;;
173;SDS011;75;48.784;9.364;2023-03-02T02:02:24;73.33;;;34.00;;
173;SDS011;75;48.784;9.364;2023-03-02T02:05:12;76.20;;;36.27;;
173;SDS011;75;48.784;9.364;2023-03-02T02:07:59;75.70;;;36.10;;
173;SDS011;75;48.784;9.364;2023-03-02T02:10:44;81.97;;;39.30;;
173;SDS011;75;48.784;9.364;2023-03-02T02:13:29;79.63;;;37.30;;
173;SDS011;75;48.784;9.364;2023-03-02T02:16:13;83.77;;;38.07;;
173;SDS011;75;48.784;9.364;2023-03-02T02:18:58;79.60;;;40.07;;
173;SDS011;75;48.784;9.364;2023-03-02T02:21:44;74.90;;;37.87;;
173;SDS011;75;48.784;9.364;2023-03-02T02:24:37;81.97;;;38.20;;
173;SDS011;75;48.784;9.364;2023-03-02T02:27:24;80.83;;;35.77;;
173;SDS011;75;48.784;9.364;2023-03-02T02:30:12;83.53;;;37.20;;
173;SDS011;75;48.784;9.364;2023-03-02T02:32:58;85.13;;;40.83;;
173;SDS011;75;48.784;9.364;2023-03-02T02:35:44;82.73;;;37.60;;
173;SDS011;75;48.784;9.364;2023-03-02T02:38:29;80.10;;;36.27;;
173;SDS011;75;48.784;9.364;2023-03-02T02:41:19;84.93;;;38.97;;
173;SDS011;75;48.784;9.364;2023-03-02T02:44:05;83.87;;;40.07;;
173;SDS011;75;48.784;9.364;2023-03-02T02:46:50;82.73;;;38.53;;
173;SDS011;75;48.784;9.364;2023-03-02T02:49:36;84.70;;;34.80;;
173;SDS011;75;48.784;9.364;2023-03-02T02:52:23;82.80;;;36.47;;
173;SDS011;75;48.784;9.364;2023-03-02T02:55:08;81.00;;;42.57;;
173;SDS011;75;48.784;9.364;2023-03-02T02:57:57;89.60;;;39.50;;
173;SDS011;75;48.784;9.364;2023-03-02T03:00:43;85.30;;;40.73;;
173;SDS011;75;48.784;9.364;2023-03-02T03:03:35;77.83;;;38.77;;
173;SDS011;75;48.784;9.364;2023-03-02T03:06:28;92.70;;;40.77;;
173;SDS011;75;48.784;9.364;2023-03-02T03:09:21;85.97;;;39.23;;
173;SDS011;75;48.784;9.364;2023-03-02T03:12:14;84.43;;;39.70;;
173;SDS011;75;48.784;9.364;2023-03-02T03:15:00;83.33;;;40.77;;
173;SDS011;75;48.784;9.364;2023-03-02T03:17:46;81.77;;;40.27;;
173;SDS011;75;48.784;9.364;2023-03-02T03:20:31;87.23;;;39.53;;
173;SDS011;75;48.784;9.364;2023-03-02T03:23:15;81.53;;;36.67;;
173;SDS011;75;48.784;9.364;2023-03-02T03:26:00;88.77;;;42.70;;
173;SDS011;75;48.784;9.364;2023-03-02T03:28:44;84.50;;;40.57;;
173;SDS011;75;48.784;9.364;2023-03-02T03:31:29;95.60;;;41.47;;
173;SDS011;75;48.784;9.364;2023-03-02T03:34:14;89.83;;;42.27;;
173;SDS011;75;48.784;9.364;2023-03-02T03:36:58;98.43;;;42.30;;
173;SDS011;75;48.784;9.364;2023-03-02T03:39:44;82.53;;;40.23;;
173;SDS011;75;48.784;9.364;2023-03-02T03:42:29;90.43;;;42.20;;
173;SDS011;75;48.784;9.364;2023-03-02T03:45:14;90.70;;;38.07;;
173;SDS011;75;48.784;9.364;2023-03-02T03:47:59;83.03;;;39.30;;
173;SDS011;75;48.784;9.364;2023-03-02T03:50:43;81.63;;;39.50;;
173;SDS011;75;48.784;9.364;2023-03-02T03:53:28;85.93;;;34.57;;
173;SDS011;75;48.784;9.364;2023-03-02T03:56:13;86.70;;;42.17;;
173;SDS011;75;48.784;9.364;2023-03-02T03:58:58;102.10;;;40.33;;
173;SDS011;75;48.784;9.364;2023-03-02T04:01:50;91.13;;;41.20;;
173;SDS011;75;48.784;9.364;2023-03-02T04:04:35;87.87;;;37.30;;
173;SDS011;75;48.784;9.364;2023-03-02T04:07:20;91.97;;;39.70;;
173;SDS011;75;48.784;9.364;2023-03-02T04:10:05;82.50;;;41.93;;
173;SDS011;75;48.784;9.364;2023-03-02T04:12:50;87.30;;;40.73;;
173;SDS011;75;48.784;9.364;2023-03-02T04:15:35;85.97;;;38.83;;
173;SDS011;75;48.784;9.364;2023-03-02T04:18:19;89.60;;;42.40;;
173;SDS011;75;48.784;9.364;2023-03-02T04:21:04;91.10;;;39.57;;
173;SDS011;75;48.784;9.364;2023-03-02T04:23:49;98.10;;;39.87;;
173;SDS011;75;48.784;9.364;2023-03-02T04:26:34;96.50;;;40.20;;
173;SDS011;75;48.784;9.364;2023-03-02T04:29:19;96.00;;;43.03;;
173;SDS011;75;48.784;9.364;2023-03-02T04:32:04;93.67;;;39.00;;
173;SDS011;75;48.784;9.364;2023-03-02T04:34:49;93.77;;;38.13;;
173;SDS011;75;48.784;9.364;2023-03-02T04:37:33;96.70;;;40.17;;
173;SDS011;75;48.784;9.364;2023-03-02T04:40:18;102.97;;;39.30;;
173;SDS011;75;48.784;9.364;2023-03-02T04:43:03;93.60;;;35.80;;
173;SDS011;75;48.784;9.364;2023-03-02T04:45:48;104.53;;;44.30;;
173;SDS011;75;48.784;9.364;2023-03-02T04:48:33;96.17;;;39.90;;
173;SDS011;75;48.784;9.364;2023-03-02T04:51:22;93.13;;;38.67;;
173;SDS011;75;48.784;9.364;2023-03-02T04:54:09;99.30;;;43.00;;
173;SDS011;75;48.784;9.364;2023-03-02T04:56:56;94.53;;;38.40;;
173;SDS011;75;48.784;9.364;2023-03-02T04:59:41;90.03;;;40.87;;
173;SDS011;75;48.784;9.364;2023-03-02T05:02:25;90.00;;;40.67;;
173;SDS011;75;48.784;9.364;2023-03-02T05:05:15;91.40;;;43.60;;
173;SDS011;75;48.784;9.364;2023-03-02T05:08:00;100.43;;;41.63;;
173;SDS011;75;48.784;9.364;2023-03-02T05:10:44;100.90;;;41.00;;
173;SDS011;75;48.784;9.364;2023-03-02T05:13:29;100.77;;;39.43;;
173;SDS011;75;48.784;9.364;2023-03-02T05:16:14;113.27;;;42.17;;
173;SDS011;75;48.784;9.364;2023-03-02T05:18:59;103.07;;;40.70;;
173;SDS011;75;48.784;9.364;2023-03-02T05:21:44;105.70;;;44.80;;
173;SDS011;75;48.784;9.364;2023-03-02T05:24:28;110.23;;;45.67;;
173;SDS011;75;48.784;9.364;2023-03-02T05:27:13;109.17;;;47.90;;
173;SDS011;75;48.784;9.364;2023-03-02T05:29:58;113.13;;;42.93;;
173;SDS011;75;48.784;9.364;2023-03-02T05:32:42;103.07;;;44.47;;
173;SDS011;75;48.784;9.364;2023-03-02T05:35:27;92.83;;;43.70;;
173;SDS011;75;48.784;9.364;2023-03-02T05:38:11;102.43;;;46.27;;
173;SDS011;75;48.784;9.364;2023-03-02T05:40:56;103.23;;;46.50;;
173;SDS011;75;48.784;9.364;2023-03-02T05:43:41;93.77;;;44.20;;
173;SDS011;75;48.784;9.364;2023-03-02T05:46:26;91.80;;;42.20;;
173;SDS011;75;48.784;9.364;2023-03-02T05:49:11;95.90;;;44.37;;
173;SDS011;75;48.784;9.364;2023-03-02T05:51:55;92.00;;;40.67;;
173;SDS011;75;48.784;9.364;2023-03-02T05:54:40;93.30;;;44.03;;
173;SDS011;75;48.784;9.364;2023-03-02T05:57:25;87.07;;;42.50;;
173;SDS011;75;48.784;9.364;2023-03-02T06:00:11;88.73;;;42.80;;
173;SDS011;75;48.784;9.364;2023-03-02T06:02:56;101.43;;;47.90;;
173;SDS011;75;48.784;9.364;2023-03-02T06:05:41;88.47;;;43.93;;
173;SDS011;75;48.784;9.364;2023-03-02T06:08:26;83.87;;;42.50;;
173;SDS011;75;48.784;9.364;2023-03-02T06:11:10;120.17;;;54.00;;
173;SDS011;75;48.784;9.364;2023-03-02T06:13:55;113.10;;;50.07;;
173;SDS011;75;48.784;9.364;2023-03-02T06:16:40;101.73;;;49.90;;
173;SDS011;75;48.784;9.364;2023-03-02T06:19:25;102.10;;;49.20;;
173;SDS011;75;48.784;9.364;2023-03-02T06:22:09;87.43;;;44.43;;
173;SDS011;75;48.784;9.364;2023-03-02T06:24:54;81.93;;;43.70;;
173;SDS011;75;48.784;9.364;2023-03-02T06:27:39;75.60;;;41.20;;
173;SDS011;75;48.784;9.364;2023-03-02T06:30:24;80.83;;;41.40;;
173;SDS011;75;48.784;9.364;2023-03-02T06:33:10;80.43;;;41.40;;
173;SDS011;75;48.784;9.364;2023-03-02T06:35:55;87.97;;;42.93;;
173;SDS011;75;48.784;9.364;2023-03-02T06:38:40;78.33;;;41.20;;
173;SDS011;75;48.784;9.364;2023-03-02T06:41:25;82.77;;;41.37;;
173;SDS011;75;48.784;9.364;2023-03-02T06:44:09;82.63;;;42.27;;
173;SDS011;75;48.784;9.364;2023-03-02T06:46:54;79.00;;;39.47;;
173;SDS011;75;48.784;9.364;2023-03-02T06:49:39;79.67;;;40.90;;
173;SDS011;75;48.784;9.364;2023-03-02T06:52:24;92.47;;;45.60;;
173;SDS011;75;48.784;9.364;2023-03-02T06:55:10;101.07;;;47.10;;
173;SDS011;75;48.784;9.364;2023-03-02T06:57:55;92.10;;;45.47;;
173;SDS011;75;48.784;9.364;2023-03-02T07:00:39;94.73;;;47.27;;
173;SDS011;75;48.784;9.364;2023-03-02T07:03:24;92.73;;;43.63;;
173;SDS011;75;48.784;9.364;2023-03-02T07:06:09;100.20;;;45.40;;
173;SDS011;75;48.784;9.364;2023-03-02T07:08:54;145.60;;;61.30;;
173;SDS011;75;48.784;9.364;2023-03-02T07:11:39;93.73;;;45.33;;
173;SDS011;75;48.784;9.364;2023-03-02T07:14:23;81.43;;;42.63;;
173;SDS011;75;48.784;9.364;2023-03-02T07:17:08;80.67;;;41.07;;
173;SDS011;75;48.784;9.364;2023-03-02T07:19:53;82.17;;;43.03;;
173;SDS011;75;48.784;9.364;2023-03-02T07:22:37;70.23;;;36.83;;
173;SDS011;75;48.784;9.364;2023-03-02T07:25:22;73.33;;;37.10;;
173;SDS011;75;48.784;9.364;2023-03-02T07:28:06;74.93;;;39.33;;
173;SDS011;75;48.784;9.364;2023-03-02T07:30:51;75.70;;;37.97;;
173;SDS011;75;48.784;9.364;2023-03-02T07:33:37;72.10;;;37.73;;
173;SDS011;75;48.784;9.364;2023-03-02T07:36:22;66.53;;;36.00;;
173;SDS011;75;48.784;9.364;2023-03-02T07:39:07;69.30;;;36.40;;
173;SDS011;75;48.784;9.364;2023-03-02T07:41:51;65.23;;;36.07;;
173;SDS011;75;48.784;9.364;2023-03-02T07:44:36;72.93;;;37.53;;
173;SDS011;75;48.784;9.364;2023-03-02T07:47:20;92.00;;;44.60;;
173;SDS011;75;48.784;9.364;2023-03-02T07:50:06;94.73;;;44.53;;
173;SDS011;75;48.784;9.364;2023-03-02T07:52:51;86.37;;;43.73;;
173;SDS011;75;48.784;9.364;2023-03-02T07:55:39;77.60;;;40.90;;
173;SDS011;75;48.784;9.364;2023-03-02T07:58:24;78.20;;;38.87;;
173;SDS011;75;48.784;9.364;2023-03-02T08:01:08;72.10;;;38.90;;
173;SDS011;75;48.784;9.364;2023-03-02T08:03:53;64.00;;;35.00;;
173;SDS011;75;48.784;9.364;2023-03-02T08:06:38;81.00;;;40.63;;
173;SDS011;75;48.784;9.364;2023-03-02T08:09:23;66.20;;;37.17;;
173;SDS011;75;48.784;9.364;2023-03-02T08:12:08;67.73;;;36.07;;
173;SDS011;75;48.784;9.364;2023-03-02T08:14:52;71.83;;;38.00;;
173;SDS011;75;48.784;9.364;2023-03-02T08:17:37;75.37;;;39.20;;
173;SDS011;75;48.784;9.364;2023-03-02T08:20:22;82.87;;;37.60;;
173;SDS011;75;48.784;9.364;2023-03-02T08:23:06;69.70;;;36.97;;
173;SDS011;75;48.784;9.364;2023-03-02T08:25:52;67.50;;;35.50;;
173;SDS011;75;48.784;9.364;2023-03-02T08:28:37;67.13;;;34.97;;
173;SDS011;75;48.784;9.364;2023-03-02T08:31:22;65.93;;;33.23;;
173;SDS011;75;48.784;9.364;2023-03-02T08:34:06;66.17;;;33.17;;
173;SDS011;75;48.784;9.364;2023-03-02T08:36:51;66.30;;;32.73;;
173;SDS011;75;48.784;9.364;2023-03-02T08:39:36;66.67;;;33.23;;
173;SDS011;75;48.784;9.364;2023-03-02T08:42:21;58.10;;;31.27;;
173;SDS011;75;48.784;9.364;2023-03-02T08:45:06;60.03;;;30.87;;
173;SDS011;75;48.784;9.364;2023-03-02T08:47:52;60.10;;;30.80;;
173;SDS011;75;48.784;9.364;2023-03-02T08:50:37;58.67;;;30.03;;
173;SDS011;75;48.784;9.364;2023-03-02T08:53:21;59.13;;;29.67;;
173;SDS011;75;48.784;9.364;2023-03-02T08:56:20;61.83;;;29.90;;
173;SDS011;75;48.784;9.364;2023-03-02T08:59:06;54.10;;;29.40;;
173;SDS011;75;48.784;9.364;2023-03-02T09:01:53;52.20;;;27.57;;
173;SDS011;75;48.784;9.364;2023-03-02T09:04:37;59.90;;;29.37;;
173;SDS011;75;48.784;9.364;2023-03-02T09:07:22;55.33;;;29.33;;
173;SDS011;75;48.784;9.364;2023-03-02T09:10:07;50.30;;;26.87;;
173;SDS011;75;48.784;9.364;2023-03-02T09:12:52;60.73;;;28.50;;
173;SDS011;75;48.784;9.364;2023-03-02T09:15:37;58.07;;;29.13;;
173;SDS011;75;48.784;9.364;2023-03-02T09:18:22;53.47;;;27.20;;
173;SDS011;75;48.784;9.364;2023-03-02T09:21:06;51.17;;;25.30;;
173;SDS011;75;48.784;9.364;2023-03-02T09:23:51;47.63;;;26.57;;
173;SDS011;75;48.784;9.364;2023-03-02T09:26:38;50.50;;;26.80;;
173;SDS011;75;48.784;9.364;2023-03-02T09:29:23;44.07;;;25.73;;
173;SDS011;75;48.784;9.364;2023-03-02T09:32:08;48.20;;;25.80;;
173;SDS011;75;48.784;9.364;2023-03-02T09:34:53;47.43;;;26.20;;
173;SDS011;75;48.784;9.364;2023-03-02T09:37:37;48.47;;;26.57;;
173;SDS011;75;48.784;9.364;2023-03-02T09:40:23;50.40;;;25.63;;
173;SDS011;75;48.784;9.364;2023-03-02T09:43:23;45.20;;;24.77;;
173;SDS011;75;48.784;9.364;2023-03-02T09:55:13;48.93;;;26.57;;
173;SDS011;75;48.784;9.364;2023-03-02T09:57:58;44.73;;;24.40;;
173;SDS011;75;48.784;9.364;2023-03-02T10:00:45;46.30;;;24.97;;
173;SDS011;75;48.784;9.364;2023-03-02T10:03:33;51.00;;;25.70;;
173;SDS011;75;48.784;9.364;2023-03-02T10:06:19;49.83;;;26.30;;
173;SDS011;75;48.784;9.364;2023-03-02T10:09:04;46.43;;;25.53;;
173;SDS011;75;48.784;9.364;2023-03-02T10:11:53;50.13;;;25.70;;
173;SDS011;75;48.784;9.364;2023-03-02T10:15:04;49.87;;;26.60;;
173;SDS011;75;48.784;9.364;2023-03-02T10:20:52;45.43;;;24.17;;
173;SDS011;75;48.784;9.364;2023-03-02T10:26:26;45.87;;;22.80;;
173;SDS011;75;48.784;9.364;2023-03-02T10:29:34;46.30;;;23.60;;
173;SDS011;75;48.784;9.364;2023-03-02T10:32:21;40.57;;;22.57;;
173;SDS011;75;48.784;9.364;2023-03-02T10:35:19;40.37;;;22.27;;
173;SDS011;75;48.784;9.364;2023-03-02T10:38:09;39.00;;;21.80;;
173;SDS011;75;48.784;9.364;2023-03-02T10:40:56;46.30;;;24.53;;
173;SDS011;75;48.784;9.364;2023-03-02T10:43:43;39.80;;;21.23;;
173;SDS011;75;48.784;9.364;2023-03-02T10:46:39;42.47;;;23.10;;
173;SDS011;75;48.784;9.364;2023-03-02T10:49:34;39.43;;;21.77;;
173;SDS011;75;48.784;9.364;2023-03-02T10:52:27;43.40;;;20.80;;
173;SDS011;75;48.784;9.364;2023-03-02T10:55:13;42.43;;;22.07;;
173;SDS011;75;48.784;9.364;2023-03-02T10:58:03;41.13;;;21.03;;
173;SDS011;75;48.784;9.364;2023-03-02T11:00:55;41.03;;;21.37;;
173;SDS011;75;48.784;9.364;2023-03-02T11:03:39;36.10;;;20.80;;
173;SDS011;75;48.784;9.364;2023-03-02T11:06:24;35.57;;;20.30;;
173;SDS011;75;48.784;9.364;2023-03-02T11:09:11;38.30;;;20.10;;
173;SDS011;75;48.784;9.364;2023-03-02T11:11:57;37.00;;;19.83;;
173;SDS011;75;48.784;9.364;2023-03-02T11:14:44;36.10;;;18.73;;
173;SDS011;75;48.784;9.364;2023-03-02T11:17:29;32.07;;;18.17;;
173;SDS011;75;48.784;9.364;2023-03-02T11:20:16;33.17;;;19.30;;
173;SDS011;75;48.784;9.364;2023-03-02T11:23:14;36.93;;;19.87;;
173;SDS011;75;48.784;9.364;2023-03-02T11:26:01;32.53;;;18.90;;
173;SDS011;75;48.784;9.364;2023-03-02T11:31:54;40.37;;;20.90;;
173;SDS011;75;48.784;9.364;2023-03-02T11:43:03;44.50;;;21.27;;
173;SDS011;75;48.784;9.364;2023-03-02T11:45:54;38.93;;;22.10;;
173;SDS011;75;48.784;9.364;2023-03-02T11:48:45;39.00;;;21.30;;
173;SDS011;75;48.784;9.364;2023-03-02T11:51:32;39.87;;;21.17;;
173;SDS011;75;48.784;9.364;2023-03-02T11:54:23;43.37;;;21.80;;
173;SDS011;75;48.784;9.364;2023-03-02T11:57:19;38.63;;;21.27;;
173;SDS011;75;48.784;9.364;2023-03-02T12:00:11;35.00;;;20.57;;
173;SDS011;75;48.784;9.364;2023-03-02T12:03:05;39.70;;;21.77;;
173;SDS011;75;48.784;9.364;2023-03-02T12:14:04;37.63;;;21.40;;
173;SDS011;75;48.784;9.364;2023-03-02T12:16:49;42.27;;;22.13;;
173;SDS011;75;48.784;9.364;2023-03-02T12:19:39;38.30;;;20.70;;
173;SDS011;75;48.784;9.364;2023-03-02T12:22:25;36.77;;;20.80;;
173;SDS011;75;48.784;9.364;2023-03-02T12:28:04;32.80;;;18.80;;
173;SDS011;75;48.784;9.364;2023-03-02T12:30:56;39.83;;;21.20;;
173;SDS011;75;48.784;9.364;2023-03-02T12:33:46;47.03;;;21.17;;
173;SDS011;75;48.784;9.364;2023-03-02T12:36:33;40.00;;;20.57;;
173;SDS011;75;48.784;9.364;2023-03-02T12:39:30;41.53;;;21.57;;
173;SDS011;75;48.784;9.364;2023-03-02T12:48:43;36.47;;;20.23;;
173;SDS011;75;48.784;9.364;2023-03-02T12:51:28;41.03;;;22.77;;
173;SDS011;75;48.784;9.364;2023-03-02T12:54:14;37.93;;;22.10;;
173;SDS011;75;48.784;9.364;2023-03-02T12:57:16;38.17;;;21.13;;
173;SDS011;75;48.784;9.364;2023-03-02T13:00:01;46.33;;;22.23;;
173;SDS011;75;48.784;9.364;2023-03-02T13:02:47;42.23;;;22.70;;
173;SDS011;75;48.784;9.364;2023-03-02T13:05:33;44.20;;;21.90;;
173;SDS011;75;48.784;9.364;2023-03-02T13:08:23;40.17;;;21.77;;
173;SDS011;75;48.784;9.364;2023-03-02T13:11:11;34.10;;;20.03;;
173;SDS011;75;48.784;9.364;2023-03-02T13:13:56;38.13;;;21.27;;
173;SDS011;75;48.784;9.364;2023-03-02T13:16:41;36.30;;;20.53;;
173;SDS011;75;48.784;9.364;2023-03-02T13:19:26;41.30;;;20.47;;
173;SDS011;75;48.784;9.364;2023-03-02T13:22:13;39.40;;;21.67;;
173;SDS011;75;48.784;9.364;2023-03-02T13:24:59;44.73;;;20.90;;
173;SDS011;75;48.784;9.364;2023-03-02T13:27:53;40.40;;;20.53;;
173;SDS011;75;48.784;9.364;2023-03-02T13:30:38;39.40;;;20.80;;
173;SDS011;75;48.784;9.364;2023-03-02T13:33:31;35.97;;;20.57;;
173;SDS011;75;48.784;9.364;2023-03-02T13:36:20;39.53;;;20.17;;
173;SDS011;75;48.784;9.364;2023-03-02T13:39:06;36.60;;;20.57;;
173;SDS011;75;48.784;9.364;2023-03-02T13:41:56;39.10;;;20.90;;
173;SDS011;75;48.784;9.364;2023-03-02T13:44:41;33.70;;;19.37;;
173;SDS011;75;48.784;9.364;2023-03-02T13:47:25;38.60;;;20.17;;
173;SDS011;75;48.784;9.364;2023-03-02T13:50:17;36.10;;;20.30;;
173;SDS011;75;48.784;9.364;2023-03-02T13:53:02;33.17;;;19.60;;
173;SDS011;75;48.784;9.364;2023-03-02T13:55:49;36.37;;;20.57;;
173;SDS011;75;48.784;9.364;2023-03-02T13:58:36;36.23;;;18.57;;
173;SDS011;75;48.784;9.364;2023-03-02T14:01:21;35.90;;;20.10;;
173;SDS011;75;48.784;9.364;2023-03-02T14:04:08;33.83;;;18.07;;
173;SDS011;75;48.784;9.364;2023-03-02T14:06:54;34.50;;;19.03;;
173;SDS011;75;48.784;9.364;2023-03-02T14:09:39;35.67;;;19.13;;
173;SDS011;75;48.784;9.364;2023-03-02T14:12:25;36.73;;;19.00;;
173;SDS011;75;48.784;9.364;2023-03-02T14:15:12;33.70;;;19.10;;
173;SDS011;75;48.784;9.364;2023-03-02T14:17:57;33.93;;;18.70;;
173;SDS011;75;48.784;9.364;2023-03-02T14:20:43;33.40;;;18.80;;
173;SDS011;75;48.784;9.364;2023-03-02T14:23:28;34.53;;;18.87;;
173;SDS011;75;48.784;9.364;2023-03-02T14:26:32;35.13;;;19.30;;
173;SDS011;75;48.784;9.364;2023-03-02T14:29:22;36.33;;;20.10;;
173;SDS011;75;48.784;9.364;2023-03-02T14:32:09;44.60;;;20.43;;
173;SDS011;75;48.784;9.364;2023-03-02T14:34:55;36.57;;;19.87;;
173;SDS011;75;48.784;9.364;2023-03-02T14:37:40;39.50;;;19.70;;
173;SDS011;75;48.784;9.364;2023-03-02T14:40:26;42.53;;;21.00;;
173;SDS011;75;48.784;9.364;2023-03-02T14:43:11;40.40;;;19.97;;
173;SDS011;75;48.784;9.364;2023-03-02T14:45:56;38.80;;;21.03;;
173;SDS011;75;48.784;9.364;2023-03-02T14:48:41;45.43;;;21.93;;
173;SDS011;75;48.784;9.364;2023-03-02T14:51:27;38.60;;;21.47;;
173;SDS011;75;48.784;9.364;2023-03-02T14:54:13;35.40;;;19.57;;
173;SDS011;75;48.784;9.364;2023-03-02T14:57:00;36.30;;;20.83;;
173;SDS011;75;48.784;9.364;2023-03-02T14:59:44;41.27;;;22.00;;
173;SDS011;75;48.784;9.364;2023-03-02T15:02:30;47.37;;;21.47;;
173;SDS011;75;48.784;9.364;2023-03-02T15:05:14;38.80;;;19.90;;
173;SDS011;75;48.784;9.364;2023-03-02T15:07:59;41.10;;;21.60;;
173;SDS011;75;48.784;9.364;2023-03-02T15:10:44;35.63;;;20.20;;
173;SDS011;75;48.784;9.364;2023-03-02T15:13:29;37.23;;;20.60;;
173;SDS011;75;48.784;9.364;2023-03-02T15:16:14;38.50;;;20.53;;
173;SDS011;75;48.784;9.364;2023-03-02T15:18:59;37.30;;;22.30;;
173;SDS011;75;48.784;9.364;2023-03-02T15:21:43;39.97;;;21.70;;
173;SDS011;75;48.784;9.364;2023-03-02T15:24:29;36.23;;;21.77;;
173;SDS011;75;48.784;9.364;2023-03-02T15:27:13;40.13;;;21.80;;
173;SDS011;75;48.784;9.364;2023-03-02T15:29:58;36.37;;;21.60;;
173;SDS011;75;48.784;9.364;2023-03-02T15:32:43;45.97;;;22.37;;
173;SDS011;75;48.784;9.364;2023-03-02T15:35:27;39.47;;;21.67;;
173;SDS011;75;48.784;9.364;2023-03-02T15:38:13;40.27;;;22.50;;
173;SDS011;75;48.784;9.364;2023-03-02T15:40:57;39.10;;;21.57;;
173;SDS011;75;48.784;9.364;2023-03-02T15:43:42;42.00;;;23.50;;
173;SDS011;75;48.784;9.364;2023-03-02T15:46:28;41.90;;;22.40;;
173;SDS011;75;48.784;9.364;2023-03-02T15:49:12;48.40;;;24.00;;
173;SDS011;75;48.784;9.364;2023-03-02T15:51:57;43.07;;;23.50;;
173;SDS011;75;48.784;9.364;2023-03-02T15:54:42;47.33;;;24.53;;
173;SDS011;75;48.784;9.364;2023-03-02T15:57:26;43.03;;;22.57;;
173;SDS011;75;48.784;9.364;2023-03-02T16:00:11;38.33;;;21.27;;
173;SDS011;75;48.784;9.364;2023-03-02T16:02:56;41.57;;;21.20;;
173;SDS011;75;48.784;9.364;2023-03-02T16:05:41;42.53;;;23.40;;
173;SDS011;75;48.784;9.364;2023-03-02T16:08:25;40.30;;;22.70;;
173;SDS011;75;48.784;9.364;2023-03-02T16:11:10;48.63;;;24.07;;
173;SDS011;75;48.784;9.364;2023-03-02T16:13:55;41.07;;;23.10;;
173;SDS011;75;48.784;9.364;2023-03-02T16:16:40;41.67;;;22.60;;
173;SDS011;75;48.784;9.364;2023-03-02T16:19:25;41.00;;;21.70;;
173;SDS011;75;48.784;9.364;2023-03-02T16:22:10;41.70;;;22.37;;
173;SDS011;75;48.784;9.364;2023-03-02T16:24:55;42.80;;;23.70;;
173;SDS011;75;48.784;9.364;2023-03-02T16:27:39;40.93;;;23.73;;
173;SDS011;75;48.784;9.364;2023-03-02T16:30:28;39.90;;;20.47;;
173;SDS011;75;48.784;9.364;2023-03-02T16:33:14;41.90;;;22.27;;
173;SDS011;75;48.784;9.364;2023-03-02T16:36:00;39.07;;;21.20;;
173;SDS011;75;48.784;9.364;2023-03-02T16:38:44;38.33;;;22.00;;
173;SDS011;75;48.784;9.364;2023-03-02T16:41:29;42.47;;;21.90;;
173;SDS011;75;48.784;9.364;2023-03-02T16:44:14;39.97;;;22.57;;
173;SDS011;75;48.784;9.364;2023-03-02T16:46:59;40.13;;;21.97;;
173;SDS011;75;48.784;9.364;2023-03-02T16:49:43;36.87;;;21.73;;
173;SDS011;75;48.784;9.364;2023-03-02T16:52:28;39.90;;;21.50;;
173;SDS011;75;48.784;9.364;2023-03-02T16:55:13;42.30;;;21.53;;
173;SDS011;75;48.784;9.364;2023-03-02T16:57:58;46.03;;;22.10;;
173;SDS011;75;48.784;9.364;2023-03-02T17:00:43;42.80;;;23.17;;
173;SDS011;75;48.784;9.364;2023-03-02T17:03:28;46.07;;;26.57;;
173;SDS011;75;48.784;9.364;2023-03-02T17:06:13;45.97;;;25.70;;
173;SDS011;75;48.784;9.364;2023-03-02T17:08:58;46.33;;;25.53;;
173;SDS011;75;48.784;9.364;2023-03-02T17:11:43;47.47;;;27.20;;
173;SDS011;75;48.784;9.364;2023-03-02T17:14:27;54.10;;;29.00;;
173;SDS011;75;48.784;9.364;2023-03-02T17:17:12;60.70;;;31.90;;
173;SDS011;75;48.784;9.364;2023-03-02T17:19:57;56.53;;;30.80;;
173;SDS011;75;48.784;9.364;2023-03-02T17:22:41;71.23;;;36.37;;
173;SDS011;75;48.784;9.364;2023-03-02T17:25:26;63.53;;;35.63;;
173;SDS011;75;48.784;9.364;2023-03-02T17:28:11;60.03;;;30.00;;
173;SDS011;75;48.784;9.364;2023-03-02T17:30:58;57.93;;;29.10;;
173;SDS011;75;48.784;9.364;2023-03-02T17:33:43;51.57;;;27.20;;
173;SDS011;75;48.784;9.364;2023-03-02T17:36:27;54.10;;;28.40;;
173;SDS011;75;48.784;9.364;2023-03-02T17:39:14;55.33;;;29.93;;
173;SDS011;75;48.784;9.364;2023-03-02T17:41:59;53.13;;;29.77;;
173;SDS011;75;48.784;9.364;2023-03-02T17:44:44;60.40;;;33.07;;
173;SDS011;75;48.784;9.364;2023-03-02T17:47:28;62.63;;;33.80;;
173;SDS011;75;48.784;9.364;2023-03-02T17:50:13;60.07;;;31.73;;
173;SDS011;75;48.784;9.364;2023-03-02T17:52:58;53.07;;;30.20;;
173;SDS011;75;48.784;9.364;2023-03-02T17:55:43;53.50;;;28.80;;
173;SDS011;75;48.784;9.364;2023-03-02T17:58:27;51.93;;;30.30;;
173;SDS011;75;48.784;9.364;2023-03-02T18:01:12;56.80;;;31.43;;
173;SDS011;75;48.784;9.364;2023-03-02T18:03:58;60.00;;;32.00;;
173;SDS011;75;48.784;9.364;2023-03-02T18:06:43;57.40;;;30.20;;
173;SDS011;75;48.784;9.364;2023-03-02T18:09:27;64.40;;;33.53;;
173;SDS011;75;48.784;9.364;2023-03-02T18:12:12;62.30;;;33.10;;
173;SDS011;75;48.784;9.364;2023-03-02T18:14:57;65.30;;;32.90;;